Time;durP1;ratioP1;P1;durP2;ratioP2;P2;SDS_P1;SDS_P2;PMS_P1;PMS_P2;Temp;Humidity;BMP_temperature;BMP_pressure;BME280_temperature;BME280_humidity;BME280_pressure;Samples;Min_cycle;Max_cycle;Signal;HPM_P1;HPM_P2
2022/03/20 00:00:11;;;;;;;0.15;0.15;;;5.10;78.40;;;;;;5033806;28;20128;-74
2022/03/20 00:02:37;;;;;;;0.20;0.20;;;5.20;89.70;;;;;;5035109;28;20049;-74
2022/03/20 00:05:03;;;;;;;0.22;0.22;;;5.20;88.30;;;;;;5038111;28;20033;-74
2022/03/20 00:07:33;;;;;;;0.10;0.10;;;5.10;81.10;;;;;;5038221;28;20049;-74
2022/03/20 00:10:00;;;;;;;0.20;0.20;;;5.20;85.90;;;;;;5037656;28;20514;-74
2022/03/20 00:12:26;;;;;;;1.40;1.30;;;5.10;80.80;;;;;;5038093;28;20049;-74
2022/03/20 00:14:52;;;;;;;0.10;0.10;;;5.20;68.10;;;;;;5037920;28;20492;-74
2022/03/20 00:17:20;;;;;;;0.22;0.22;;;5.20;84.70;;;;;;5037352;28;20049;-74
2022/03/20 00:19:46;;;;;;;0.40;0.40;;;5.20;71.30;;;;;;5037237;28;20041;-74
2022/03/20 00:22:13;;;;;;;0.93;0.93;;;5.20;76.80;;;;;;5005274;28;20069;-74
2022/03/20 00:24:42;;;;;;;0.30;0.30;;;5.20;77.10;;;;;;5004079;28;20042;-76
2022/03/20 00:27:10;;;;;;;0.57;0.57;;;5.00;75.80;;;;;;5005986;28;20041;-75
2022/03/20 00:29:36;;;;;;;0.20;0.20;;;5.10;71.40;;;;;;5013581;28;20045;-75
2022/03/20 00:32:03;;;;;;;0.70;0.70;;;5.10;83.30;;;;;;5011468;28;20041;-74
2022/03/20 00:34:29;;;;;;;0.40;0.40;;;5.10;90.40;;;;;;5009934;28;20045;-74
2022/03/20 00:36:55;;;;;;;0.15;0.15;;;5.00;82.10;;;;;;5013013;28;20528;-75
2022/03/20 00:39:20;;;;;;;0.22;0.22;;;5.00;81.80;;;;;;5003490;28;20124;-75
2022/03/20 00:41:46;;;;;;;0.45;0.45;;;5.00;87.40;;;;;;4998375;28;20487;-75
2022/03/20 00:44:12;;;;;;;0.63;0.20;;;5.00;87.90;;;;;;5000364;28;20044;-75
2022/03/20 00:46:38;;;;;;;0.20;0.20;;;5.10;92.90;;;;;;5015834;28;20052;-75
2022/03/20 00:49:05;;;;;;;2.22;0.70;;;5.00;72.30;;;;;;5016762;28;20400;-75
2022/03/20 00:51:32;;;;;;;0.35;0.35;;;5.00;91.60;;;;;;5016045;28;20052;-75
2022/03/20 00:53:58;;;;;;;0.60;0.60;;;5.00;73.00;;;;;;5017181;28;20168;-75
2022/03/20 00:56:24;;;;;;;0.55;0.43;;;4.90;91.80;;;;;;5014608;28;20085;-75
2022/03/20 00:58:49;;;;;;;0.75;0.75;;;4.90;90.50;;;;;;5016814;28;20038;-75
2022/03/20 01:01:15;;;;;;;0.32;0.32;;;4.80;93.40;;;;;;5016431;28;20120;-75
2022/03/20 01:03:42;;;;;;;0.20;0.20;;;4.80;93.10;;;;;;5010445;28;20034;-75
2022/03/20 01:06:08;;;;;;;0.30;0.30;;;4.80;99.90;;;;;;4996997;28;20405;-76
2022/03/20 01:08:35;;;;;;;1.00;0.90;;;4.90;99.70;;;;;;5016398;28;20057;-75
2022/03/20 01:11:10;;;;;;;0.65;0.65;;;4.90;94.40;;;;;;5015998;28;20046;-75
2022/03/20 01:13:36;;;;;;;0.93;0.93;;;4.70;96.20;;;;;;5015148;28;20066;-75
2022/03/20 01:16:04;;;;;;;1.75;1.40;;;4.90;97.40;;;;;;5016539;28;20041;-76
2022/03/20 01:18:29;;;;;;;0.10;0.10;;;4.80;96.30;;;;;;5014307;28;20042;-75
2022/03/20 01:20:55;;;;;;;0.38;0.38;;;4.80;99.30;;;;;;5015750;28;20053;-76
2022/03/20 01:23:21;;;;;;;0.20;0.20;;;4.80;95.80;;;;;;5016581;28;20370;-75
2022/03/20 01:25:49;;;;;;;0.10;0.10;;;4.70;95.40;;;;;;5016543;28;20038;-76
2022/03/20 01:28:15;;;;;;;0.10;0.10;;;4.60;99.90;;;;;;5012787;28;20125;-76
2022/03/20 01:30:42;;;;;;;0.22;0.22;;;4.60;99.70;;;;;;5016917;28;20128;-76
2022/03/20 01:33:08;;;;;;;0.25;0.25;;;4.60;99.90;;;;;;5014902;28;20038;-76
2022/03/20 01:35:35;;;;;;;0.10;0.10;;;4.60;99.90;;;;;;5015223;28;20046;-76
2022/03/20 01:38:02;;;;;;;0.50;0.40;;;4.40;99.90;;;;;;5015776;28;20108;-75
2022/03/20 01:40:28;;;;;;;0.43;0.43;;;4.50;99.90;;;;;;5016286;28;20496;-75
2022/03/20 01:42:54;;;;;;;0.10;0.10;;;4.50;99.90;;;;;;5015253;28;20073;-75
2022/03/20 01:45:21;;;;;;;0.10;0.10;;;4.50;99.90;;;;;;5003281;28;20068;-75
2022/03/20 01:47:49;;;;;;;0.47;0.47;;;4.40;99.90;;;;;;5015913;28;20040;-75
2022/03/20 01:50:21;;;;;;;0.63;0.63;;;4.40;99.90;;;;;;5016062;28;20057;-75
2022/03/20 01:52:48;;;;;;;0.52;0.52;;;4.40;99.90;;;;;;5015884;28;20049;-75
2022/03/20 01:55:16;;;;;;;0.55;0.55;;;4.40;99.90;;;;;;5015240;28;20041;-75
2022/03/20 01:57:44;;;;;;;0.10;0.10;;;4.40;99.90;;;;;;5015879;28;20115;-75
2022/03/20 02:00:12;;;;;;;0.93;0.93;;;4.50;99.90;;;;;;5011991;28;20043;-75
2022/03/20 02:02:37;;;;;;;0.10;0.10;;;4.40;99.90;;;;;;5016022;28;20049;-75
2022/03/20 02:05:05;;;;;;;0.45;0.45;;;4.40;99.90;;;;;;5015489;28;20044;-75
2022/03/20 02:07:34;;;;;;;0.50;0.50;;;4.30;99.90;;;;;;5014895;28;20041;-76
2022/03/20 02:10:01;;;;;;;0.20;0.20;;;4.30;99.90;;;;;;4998011;28;20038;-76
2022/03/20 02:12:28;;;;;;;0.30;0.30;;;4.30;99.90;;;;;;5011457;28;20052;-75
2022/03/20 02:14:56;;;;;;;0.10;0.10;;;4.30;98.40;;;;;;5015852;28;20034;-75
2022/03/20 02:17:22;;;;;;;0.63;0.52;;;4.30;95.80;;;;;;5015020;28;20060;-75
2022/03/20 02:19:48;;;;;;;0.30;0.30;;;4.40;90.60;;;;;;5015538;28;20124;-75
2022/03/20 02:22:13;;;;;;;0.13;0.13;;;4.40;93.10;;;;;;5016038;28;20041;-75
2022/03/20 02:24:44;;;;;;;0.20;0.13;;;4.50;99.90;;;;;;5009714;28;20049;-75
2022/03/20 02:27:24;;;;;;;0.55;0.43;;;4.70;95.60;;;;;;5015348;28;20069;-75
2022/03/20 02:29:59;;;;;;;0.22;0.22;;;4.90;90.20;;;;;;5015383;28;20033;-75
2022/03/20 02:32:29;;;;;;;0.20;0.20;;;4.90;72.50;;;;;;5015176;28;20493;-76
2022/03/20 02:35:01;;;;;;;0.30;0.30;;;4.80;56.30;;;;;;5015581;28;20037;-76
2022/03/20 02:37:28;;;;;;;0.13;0.13;;;4.90;75.10;;;;;;5015566;28;20088;-75
2022/03/20 02:39:57;;;;;;;0.50;0.50;;;4.90;64.40;;;;;;5015453;28;20103;-75
2022/03/20 02:42:23;;;;;;;0.03;0.03;;;4.90;78.70;;;;;;5015628;28;20037;-75
2022/03/20 02:45:12;;;;;;;4.10;0.75;;;4.80;65.30;;;;;;5013728;28;20042;-76
2022/03/20 02:47:45;;;;;;;0.75;0.75;;;5.00;77.50;;;;;;5006661;28;20041;-76
2022/03/20 02:50:13;;;;;;;0.30;0.30;;;5.00;68.40;;;;;;5014877;28;20091;-75
2022/03/20 02:52:43;;;;;;;0.15;0.15;;;5.10;71.70;;;;;;5015363;28;20053;-75
2022/03/20 02:55:09;;;;;;;0.10;0.10;;;5.10;61.90;;;;;;5016160;28;20065;-75
2022/03/20 02:57:35;;;;;;;0.85;0.82;;;5.10;61.30;;;;;;5014324;28;20339;-75
2022/03/20 03:00:05;;;;;;;0.17;0.17;;;5.00;62.90;;;;;;5015468;28;20155;-75
2022/03/20 03:02:35;;;;;;;0.57;0.57;;;5.00;69.90;;;;;;5005052;28;20061;-75
2022/03/20 03:05:01;;;;;;;1.75;0.70;;;4.80;87.00;;;;;;5014094;28;20037;-75
2022/03/20 03:07:31;;;;;;;0.32;0.30;;;4.80;86.80;;;;;;5015148;28;20388;-75
2022/03/20 03:12:43;;;;;;;0.75;0.55;;;4.90;97.90;;;;;;5013585;28;20405;-75
2022/03/20 03:15:21;;;;;;;0.55;0.55;;;5.00;95.60;;;;;;5011260;28;20124;-75
2022/03/20 03:17:48;;;;;;;0.35;0.35;;;5.00;99.90;;;;;;5014305;28;20132;-75
2022/03/20 03:20:14;;;;;;;0.40;0.40;;;5.20;95.50;;;;;;5015786;28;20037;-75
2022/03/20 03:22:40;;;;;;;0.63;0.63;;;5.20;83.30;;;;;;5015088;28;20046;-75
2022/03/20 03:25:07;;;;;;;0.20;0.20;;;5.40;90.00;;;;;;4996566;28;20212;-75
2022/03/20 03:27:33;;;;;;;0.38;0.38;;;5.50;77.70;;;;;;5007911;28;20050;-75
2022/03/20 03:29:59;;;;;;;3.83;0.95;;;5.40;66.00;;;;;;5015212;28;20215;-75
2022/03/20 03:32:25;;;;;;;0.50;0.50;;;5.40;83.70;;;;;;4994922;28;20046;-75
2022/03/20 03:37:36;;;;;;;0.45;0.45;;;5.60;82.00;;;;;;4996399;28;20124;-75
2022/03/20 03:40:04;;;;;;;0.30;0.30;;;5.60;77.70;;;;;;5014582;28;20093;-75
2022/03/20 03:42:30;;;;;;;0.65;0.65;;;5.50;66.60;;;;;;5018385;28;20531;-75
2022/03/20 03:44:57;;;;;;;0.77;0.77;;;5.40;91.50;;;;;;5018524;28;20038;-75
2022/03/20 03:47:24;;;;;;;0.30;0.30;;;5.70;76.10;;;;;;5018159;28;20038;-75
2022/03/20 03:49:50;;;;;;;0.52;0.52;;;5.70;80.20;;;;;;5018536;28;20029;-75
2022/03/20 03:52:16;;;;;;;1.08;0.90;;;5.80;81.20;;;;;;5017858;28;20046;-75
2022/03/20 03:54:42;;;;;;;0.57;0.28;;;5.90;74.70;;;;;;5018007;28;20038;-75
2022/03/20 03:57:09;;;;;;;1.08;1.08;;;5.90;76.80;;;;;;5018330;28;20102;-75
2022/03/20 03:59:35;;;;;;;0.57;0.57;;;6.00;74.60;;;;;;5017612;28;20523;-75
2022/03/20 04:02:01;;;;;;;2.80;0.93;;;6.10;77.90;;;;;;5017323;28;20057;-75
2022/03/20 04:04:27;;;;;;;0.70;0.57;;;6.10;73.30;;;;;;5014529;28;22682;-75
2022/03/20 04:06:54;;;;;;;0.43;0.43;;;6.10;67.10;;;;;;4998686;28;20481;-75
2022/03/20 04:09:20;;;;;;;0.75;0.47;;;6.20;77.80;;;;;;4998422;28;20038;-75
2022/03/20 04:11:46;;;;;;;0.40;0.40;;;6.20;76.00;;;;;;5013070;28;20046;-75
2022/03/20 04:14:12;;;;;;;2.13;1.05;;;6.10;67.40;;;;;;5017041;28;20121;-75
2022/03/20 04:16:38;;;;;;;0.68;0.68;;;6.10;84.00;;;;;;5017217;28;20052;-75
2022/03/20 04:19:04;;;;;;;3.03;0.60;;;6.30;90.20;;;;;;5017828;28;20042;-75
2022/03/20 04:21:30;;;;;;;0.40;0.40;;;6.40;71.20;;;;;;5018095;28;20469;-75
2022/03/20 04:23:56;;;;;;;1.00;0.93;;;6.30;69.10;;;;;;5014403;28;20038;-75
2022/03/20 04:26:23;;;;;;;0.90;0.80;;;6.40;73.70;;;;;;5017707;28;20053;-75
2022/03/20 04:28:51;;;;;;;0.38;0.38;;;6.50;81.40;;;;;;5017378;28;20041;-75
2022/03/20 04:31:19;;;;;;;2.40;1.48;;;6.50;77.80;;;;;;5012776;28;20501;-75
2022/03/20 04:33:50;;;;;;;1.02;0.82;;;6.60;67.90;;;;;;5017156;28;20485;-75
2022/03/20 04:36:17;;;;;;;0.60;0.45;;;6.70;70.50;;;;;;5016560;28;20054;-75
2022/03/20 04:38:44;;;;;;;0.40;0.40;;;7.00;64.90;;;;;;4997027;28;20034;-75
2022/03/20 04:41:10;;;;;;;0.70;0.57;;;7.10;55.70;;;;;;5013385;28;20073;-75
2022/03/20 04:43:35;;;;;;;0.80;0.80;;;7.20;54.80;;;;;;5017611;28;20061;-75
2022/03/20 04:46:01;;;;;;;0.65;0.65;;;7.20;51.50;;;;;;5016815;28;20041;-76
2022/03/20 04:59:24;;;;;;;3.13;1.48;;;7.50;60.90;;;;;;5014596;28;20033;-76
2022/03/20 05:01:50;;;;;;;0.32;0.32;;;7.60;74.40;;;;;;5016236;28;20054;-76
2022/03/20 05:04:16;;;;;;;0.65;0.65;;;7.70;78.70;;;;;;5015809;28;20109;-76
2022/03/20 05:06:43;;;;;;;0.77;0.77;;;7.80;82.40;;;;;;5017228;28;20503;-75
2022/03/20 05:14:38;;;;;;;2.05;1.95;;;7.90;77.80;;;;;;5012190;28;20117;-76
2022/03/20 05:17:05;;;;;;;2.45;1.58;;;8.00;56.70;;;;;;5016809;28;20132;-75
2022/03/20 05:19:33;;;;;;;0.93;0.93;;;7.90;68.70;;;;;;5017205;28;20544;-75
2022/03/20 05:21:59;;;;;;;0.93;0.82;;;7.80;76.60;;;;;;5017453;28;20038;-75
2022/03/20 05:24:25;;;;;;;1.45;1.38;;;7.60;99.10;;;;;;4996376;28;20581;-75
2022/03/20 05:26:51;;;;;;;0.88;0.88;;;7.50;99.70;;;;;;5011561;28;20140;-75
2022/03/20 05:29:17;;;;;;;0.43;0.43;;;7.40;99.90;;;;;;5016118;28;20112;-75
2022/03/20 05:31:43;;;;;;;1.27;1.17;;;7.40;99.90;;;;;;5008335;28;20033;-75
2022/03/20 05:34:09;;;;;;;1.08;0.95;;;7.30;99.90;;;;;;5011667;28;20049;-75
2022/03/20 05:36:35;;;;;;;6.03;1.27;;;7.30;99.90;;;;;;5009802;28;20080;-75
2022/03/20 05:39:01;;;;;;;0.60;0.60;;;7.40;99.90;;;;;;5016218;28;20066;-75
2022/03/20 05:44:12;;;;;;;0.43;0.43;;;7.30;99.90;;;;;;5015963;28;20405;-75
2022/03/20 05:46:40;;;;;;;2.38;1.33;;;7.30;99.90;;;;;;5015758;28;20485;-75
2022/03/20 05:49:07;;;;;;;0.75;0.75;;;7.30;99.90;;;;;;5016445;28;20052;-75
2022/03/20 05:51:34;;;;;;;0.55;0.45;;;7.20;99.90;;;;;;5016845;28;20046;-75
2022/03/20 05:54:01;;;;;;;0.75;0.75;;;7.30;99.90;;;;;;5015167;28;20036;-75
2022/03/20 05:59:11;;;;;;;0.95;0.93;;;7.20;99.90;;;;;;5015351;28;20527;-75
2022/03/20 06:01:37;;;;;;;1.05;1.05;;;7.20;99.90;;;;;;5013338;28;20057;-75
2022/03/20 06:04:03;;;;;;;2.00;1.55;;;7.20;99.90;;;;;;5015518;28;20068;-75
2022/03/20 06:06:32;;;;;;;1.13;0.93;;;7.20;99.90;;;;;;5015786;28;20050;-75
2022/03/20 06:08:58;;;;;;;10.65;2.28;;;7.20;99.90;;;;;;5015466;28;20416;-75
2022/03/20 06:11:24;;;;;;;0.52;0.52;;;7.10;99.90;;;;;;5015186;28;20046;-75
2022/03/20 06:13:50;;;;;;;1.30;1.30;;;7.20;99.90;;;;;;5015643;28;20033;-75
2022/03/20 06:16:17;;;;;;;0.60;0.60;;;7.20;99.90;;;;;;5012897;28;20068;-76
2022/03/20 06:18:44;;;;;;;0.40;0.40;;;7.10;99.90;;;;;;5014472;28;20041;-75
2022/03/20 06:21:13;;;;;;;1.05;0.70;;;7.20;99.90;;;;;;5015606;28;20034;-75
2022/03/20 06:23:39;;;;;;;1.95;1.85;;;7.10;99.90;;;;;;5015515;28;20125;-75
2022/03/20 06:26:06;;;;;;;0.88;0.70;;;7.20;99.90;;;;;;5015457;28;20133;-75
2022/03/20 06:28:33;;;;;;;1.30;1.10;;;7.20;99.90;;;;;;5014877;28;20085;-75
2022/03/20 06:30:59;;;;;;;0.70;0.57;;;7.20;99.90;;;;;;5013134;28;20042;-75
2022/03/20 06:33:25;;;;;;;0.63;0.63;;;7.20;99.90;;;;;;5015161;28;20044;-75
2022/03/20 06:35:52;;;;;;;0.95;0.95;;;7.20;99.90;;;;;;5015152;28;20037;-76
2022/03/20 06:38:19;;;;;;;0.85;0.40;;;7.20;99.90;;;;;;5005477;28;20081;-76
2022/03/20 06:40:45;;;;;;;0.25;0.25;;;7.20;99.90;;;;;;5008146;28;20033;-76
2022/03/20 06:43:10;;;;;;;0.77;0.77;;;7.20;99.90;;;;;;5014958;28;20088;-76
2022/03/20 06:45:37;;;;;;;0.40;0.40;;;7.20;99.90;;;;;;5010982;28;20073;-76
2022/03/20 06:48:04;;;;;;;0.73;0.73;;;7.20;99.90;;;;;;4995427;28;20065;-76
2022/03/20 06:50:30;;;;;;;0.30;0.30;;;7.20;99.90;;;;;;4995394;28;20046;-76
2022/03/20 06:53:02;;;;;;;0.90;0.88;;;7.20;99.90;;;;;;5004406;28;20030;-75
2022/03/20 06:55:30;;;;;;;0.90;0.80;;;7.30;99.90;;;;;;5014277;28;20038;-75
2022/03/20 06:57:56;;;;;;;0.90;0.90;;;7.30;99.90;;;;;;5014814;28;20042;-76
2022/03/20 07:00:22;;;;;;;0.47;0.47;;;7.30;99.90;;;;;;5013308;28;20045;-76
2022/03/20 07:02:48;;;;;;;0.88;0.88;;;7.40;99.90;;;;;;5013900;28;20094;-76
2022/03/20 07:05:14;;;;;;;0.20;0.20;;;7.50;99.90;;;;;;4996220;28;20456;-76
2022/03/20 07:07:40;;;;;;;2.95;0.82;;;7.50;99.90;;;;;;4995217;28;20042;-75
2022/03/20 07:10:07;;;;;;;0.68;0.68;;;7.50;99.90;;;;;;4994803;28;20034;-75
2022/03/20 07:12:33;;;;;;;0.68;0.68;;;7.50;99.90;;;;;;5002490;28;20037;-75
2022/03/20 07:14:59;;;;;;;0.90;0.90;;;7.60;99.90;;;;;;5014486;28;20175;-75
2022/03/20 07:17:28;;;;;;;0.38;0.38;;;7.60;99.90;;;;;;4995286;28;20042;-76
2022/03/20 07:19:53;;;;;;;0.52;0.50;;;7.60;99.90;;;;;;4995073;28;20046;-76
2022/03/20 07:22:22;;;;;;;0.10;0.10;;;7.60;99.90;;;;;;4994885;28;20034;-76
2022/03/20 07:24:48;;;;;;;2.28;0.90;;;7.60;99.90;;;;;;4999715;28;20034;-76
2022/03/20 07:29:59;;;;;;;1.17;0.52;;;7.60;99.90;;;;;;5011919;28;20088;-76
2022/03/20 07:32:25;;;;;;;1.25;0.45;;;7.60;99.90;;;;;;5012744;28;20033;-76
2022/03/20 07:34:51;;;;;;;0.38;0.38;;;7.70;99.90;;;;;;5014868;28;20033;-76
2022/03/20 07:37:18;;;;;;;0.65;0.65;;;7.70;99.90;;;;;;5013865;28;20076;-76
2022/03/20 07:39:49;;;;;;;0.40;0.40;;;7.70;99.90;;;;;;4997959;28;20038;-76
2022/03/20 07:42:16;;;;;;;1.00;0.95;;;7.80;99.90;;;;;;4995442;28;20046;-76
2022/03/20 07:44:46;;;;;;;2.47;1.75;;;7.90;99.90;;;;;;4995104;28;20081;-76
2022/03/20 07:47:22;;;;;;;1.13;1.13;;;7.80;99.90;;;;;;5005583;28;20081;-76
2022/03/20 07:49:50;;;;;;;0.80;0.80;;;7.80;99.90;;;;;;5014819;28;20045;-76
2022/03/20 07:52:16;;;;;;;2.08;0.50;;;7.80;99.90;;;;;;5014194;28;20127;-75
2022/03/20 07:54:42;;;;;;;0.70;0.70;;;7.80;99.90;;;;;;5008328;28;20129;-76
2022/03/20 07:57:08;;;;;;;0.88;0.88;;;7.80;99.90;;;;;;4994695;28;20081;-76
2022/03/20 07:59:35;;;;;;;0.52;0.52;;;7.70;99.90;;;;;;4994744;28;20042;-76
2022/03/20 08:02:02;;;;;;;0.50;0.50;;;7.60;99.90;;;;;;5003810;28;20050;-76
2022/03/20 08:04:28;;;;;;;0.30;0.30;;;7.70;99.90;;;;;;5014524;28;20033;-76
2022/03/20 08:06:53;;;;;;;1.08;0.98;;;7.70;99.90;;;;;;5014571;28;20053;-76
2022/03/20 08:09:19;;;;;;;0.10;0.10;;;7.70;99.90;;;;;;5008405;28;20517;-76
2022/03/20 08:11:45;;;;;;;0.65;0.65;;;7.60;99.90;;;;;;5015144;28;20042;-76
2022/03/20 08:14:11;;;;;;;0.40;0.40;;;7.60;99.90;;;;;;5008820;28;20124;-76
2022/03/20 08:16:39;;;;;;;0.57;0.57;;;7.70;99.90;;;;;;5011383;28;20513;-76
2022/03/20 08:19:08;;;;;;;0.20;0.20;;;7.70;99.90;;;;;;5000335;28;20062;-76
2022/03/20 08:21:34;;;;;;;0.85;0.85;;;7.60;99.90;;;;;;5012539;28;20505;-76
2022/03/20 08:24:02;;;;;;;0.40;0.40;;;7.70;99.90;;;;;;5016499;28;20034;-76
2022/03/20 08:26:31;;;;;;;0.63;0.47;;;7.70;99.90;;;;;;5015555;28;20053;-76
2022/03/20 08:28:59;;;;;;;0.47;0.47;;;7.80;99.90;;;;;;4997897;28;20069;-75
2022/03/20 08:31:25;;;;;;;0.80;0.80;;;7.90;99.90;;;;;;4998914;28;20046;-75
2022/03/20 08:33:51;;;;;;;0.77;0.77;;;8.00;99.90;;;;;;5016002;28;20097;-75
2022/03/20 08:36:17;;;;;;;0.68;0.68;;;7.90;99.90;;;;;;5017723;28;20052;-75
2022/03/20 08:38:43;;;;;;;1.55;1.40;;;8.10;99.90;;;;;;5012316;28;20042;-75
2022/03/20 08:41:09;;;;;;;0.50;0.50;;;8.10;99.90;;;;;;5016767;28;20125;-76
2022/03/20 08:43:35;;;;;;;0.45;0.45;;;8.10;99.90;;;;;;5017358;28;20120;-76
2022/03/20 08:46:01;;;;;;;0.30;0.30;;;8.20;99.90;;;;;;5016968;28;20050;-76
2022/03/20 08:48:27;;;;;;;0.10;0.10;;;8.00;99.90;;;;;;5017797;28;20373;-75
2022/03/20 08:50:52;;;;;;;1.08;0.95;;;8.00;99.90;;;;;;5017684;28;20117;-76
2022/03/20 08:53:19;;;;;;;0.50;0.50;;;8.00;99.90;;;;;;5016291;28;20168;-76
2022/03/20 08:55:47;;;;;;;0.77;0.77;;;8.10;99.90;;;;;;5017172;28;20517;-76
2022/03/20 08:58:13;;;;;;;0.43;0.43;;;8.20;1.00;;;;;;5016760;28;20042;-76
2022/03/20 09:00:39;;;;;;;0.13;0.13;;;8.30;1.00;;;;;;4999051;28;20410;-76
2022/03/20 09:03:06;;;;;;;0.63;0.63;;;8.40;1.00;;;;;;5003653;28;20030;-76
2022/03/20 09:05:32;;;;;;;0.20;0.20;;;8.40;1.00;;;;;;5007717;28;20112;-77
2022/03/20 09:07:58;;;;;;;1.15;0.95;;;8.50;1.00;;;;;;5010660;28;20058;-77
2022/03/20 09:10:25;;;;;;;0.32;0.32;;;8.70;1.00;;;;;;4997229;28;20498;-77
2022/03/20 09:12:57;;;;;;;2.08;0.63;;;8.80;1.00;;;;;;4997339;28;20041;-77
2022/03/20 09:15:25;;;;;;;0.38;0.38;;;8.90;1.00;;;;;;5009700;28;20052;-76
2022/03/20 09:20:37;;;;;;;1.27;1.08;;;8.90;1.00;;;;;;5016779;28;20092;-75
2022/03/20 09:23:04;;;;;;;0.68;0.68;;;8.90;1.00;;;;;;5011336;28;20042;-76
2022/03/20 09:25:32;;;;;;;0.10;0.10;;;8.80;1.00;;;;;;5009309;28;20036;-75
2022/03/20 09:27:58;;;;;;;0.20;0.20;;;8.80;1.00;;;;;;5011062;28;20122;-76
2022/03/20 09:30:26;;;;;;;0.10;0.10;;;8.80;1.00;;;;;;5014593;28;20571;-76
2022/03/20 09:32:52;;;;;;;0.25;0.25;;;8.80;1.00;;;;;;5015904;28;20038;-76
2022/03/20 09:35:19;;;;;;;0.82;0.82;;;8.80;78.90;;;;;;5005014;28;20101;-76
2022/03/20 09:37:45;;;;;;;0.10;0.10;;;8.70;99.90;;;;;;5009470;28;20042;-76
2022/03/20 09:40:13;;;;;;;0.52;0.52;;;8.60;99.90;;;;;;5015746;28;20111;-76
2022/03/20 09:42:41;;;;;;;5.72;0.95;;;8.70;99.90;;;;;;5009358;28;20046;-76
2022/03/20 09:45:11;;;;;;;0.30;0.30;;;8.50;99.90;;;;;;5005789;28;20295;-78
2022/03/20 09:47:40;;;;;;;1.13;1.02;;;8.60;99.90;;;;;;4982122;28;20497;-78
2022/03/20 09:50:07;;;;;;;0.20;0.20;;;8.50;99.90;;;;;;5009008;28;20045;-75
2022/03/20 09:52:37;;;;;;;3.83;0.63;;;8.50;99.90;;;;;;5001337;28;20046;-77
2022/03/20 09:55:06;;;;;;;0.22;0.22;;;8.40;99.90;;;;;;5006503;28;20141;-77
2022/03/20 09:57:32;;;;;;;0.20;0.20;;;8.50;99.90;;;;;;4999968;28;20069;-77
2022/03/20 10:00:04;;;;;;;0.40;0.40;;;8.40;99.90;;;;;;5006558;28;20069;-77
2022/03/20 10:02:33;;;;;;;1.85;0.95;;;8.40;99.90;;;;;;5013337;28;20056;-77
2022/03/20 10:05:05;;;;;;;0.55;0.55;;;8.50;99.90;;;;;;4989542;28;20107;-79
2022/03/20 10:07:36;;;;;;;0.28;0.28;;;8.50;99.90;;;;;;4999420;28;20053;-76
2022/03/20 10:10:18;;;;;;;0.30;0.30;;;8.60;99.90;;;;;;5007678;28;20051;-76
2022/03/20 10:13:00;;;;;;;0.15;0.15;;;8.70;99.90;;;;;;5005858;28;20045;-77
2022/03/20 10:15:40;;;;;;;1.55;0.55;;;8.80;99.90;;;;;;5002788;28;20413;-77
2022/03/20 10:18:15;;;;;;;1.05;0.98;;;8.70;99.90;;;;;;5002946;28;20092;-77
2022/03/20 10:20:48;;;;;;;0.70;0.70;;;8.70;99.90;;;;;;5003282;28;20072;-77
2022/03/20 10:23:34;;;;;;;0.35;0.35;;;8.80;99.90;;;;;;5007682;28;20069;-77
2022/03/20 10:26:07;;;;;;;0.22;0.22;;;8.80;99.90;;;;;;4996340;28;20038;-77
2022/03/20 10:28:48;;;;;;;0.57;0.57;;;8.70;99.90;;;;;;5013781;28;20547;-76
2022/03/20 10:31:20;;;;;;;;;;;8.80;99.90;;;;;;4997170;28;20469;-76
2022/03/20 10:34:07;;;;;;;0.47;0.47;;;9.00;99.90;;;;;;5012093;28;19913;-75
2022/03/20 10:36:34;;;;;;;0.28;0.28;;;9.00;99.90;;;;;;4996660;28;20072;-76
2022/03/20 10:39:00;;;;;;;0.85;0.85;;;9.10;99.90;;;;;;5011567;28;20053;-74
2022/03/20 10:41:34;;;;;;;0.38;0.38;;;9.00;99.90;;;;;;5002239;28;20044;-76
2022/03/20 10:44:02;;;;;;;0.63;0.63;;;8.90;99.90;;;;;;5005820;28;20046;-74
2022/03/20 10:46:30;;;;;;;0.50;0.50;;;8.90;99.90;;;;;;4982873;28;20468;-73
2022/03/20 10:48:58;;;;;;;0.40;0.40;;;9.00;99.90;;;;;;5004087;28;20041;-73
2022/03/20 10:51:40;;;;;;;0.65;0.65;;;9.00;99.90;;;;;;5001799;28;20104;-74
2022/03/20 10:54:11;;;;;;;0.43;0.43;;;9.00;99.90;;;;;;5005030;28;20050;-74
2022/03/20 10:56:58;;;;;;;0.30;0.30;;;9.10;99.90;;;;;;5002642;28;20132;-75
2022/03/20 10:59:27;;;;;;;0.47;0.47;;;9.10;99.90;;;;;;5002343;28;20548;-74
2022/03/20 11:01:53;;;;;;;1.65;0.60;;;9.00;99.90;;;;;;5002812;28;20128;-75
2022/03/20 11:04:20;;;;;;;0.17;0.17;;;9.00;99.90;;;;;;5004303;28;20586;-74
2022/03/20 11:06:48;;;;;;;0.15;0.15;;;9.00;99.90;;;;;;5005062;28;20041;-74
2022/03/20 11:09:15;;;;;;;0.50;0.50;;;9.10;99.90;;;;;;5004810;28;20037;-75
2022/03/20 11:11:53;;;;;;;1.48;0.90;;;9.20;99.90;;;;;;4998254;28;20045;-74
2022/03/20 11:14:21;;;;;;;0.30;0.25;;;9.20;99.90;;;;;;5002758;28;20046;-73
2022/03/20 11:16:49;;;;;;;0.73;0.73;;;9.30;99.90;;;;;;5001068;28;20048;-73
2022/03/20 11:19:25;;;;;;;0.25;0.25;;;9.50;99.90;;;;;;5003331;28;20508;-74
2022/03/20 11:21:54;;;;;;;0.32;0.20;;;9.40;99.90;;;;;;5004995;28;20065;-75
2022/03/20 11:24:21;;;;;;;0.75;0.75;;;9.40;99.90;;;;;;5005242;28;20512;-75
2022/03/20 11:26:51;;;;;;;0.10;0.10;;;9.40;99.90;;;;;;5005737;28;20092;-74
2022/03/20 11:29:19;;;;;;;0.30;0.30;;;9.40;99.90;;;;;;5005527;28;20045;-74
2022/03/20 11:31:46;;;;;;;0.50;0.50;;;9.40;99.90;;;;;;5001279;28;20100;-74
2022/03/20 11:34:13;;;;;;;0.45;0.45;;;9.40;99.90;;;;;;4999747;28;20497;-74
2022/03/20 11:37:00;;;;;;;0.85;0.40;;;9.40;99.90;;;;;;4997697;28;20038;-75
2022/03/20 11:39:26;;;;;;;0.10;0.10;;;9.60;99.90;;;;;;5004530;28;20125;-75
2022/03/20 11:42:21;;;;;;;0.10;0.10;;;9.50;99.90;;;;;;5004771;28;20469;-76
2022/03/20 11:45:12;;;;;;;0.52;0.52;;;9.40;99.90;;;;;;5005574;28;20045;-74
2022/03/20 11:47:40;;;;;;;0.30;0.30;;;9.40;99.90;;;;;;5000689;28;20045;-74
2022/03/20 11:50:07;;;;;;;0.90;0.90;;;9.30;99.90;;;;;;5010248;28;20041;-74
2022/03/20 11:53:00;;;;;;;0.40;0.20;;;9.20;99.90;;;;;;5011912;28;20042;-74
2022/03/20 11:55:40;;;;;;;0.25;0.25;;;9.30;99.90;;;;;;4998969;28;20034;-73
2022/03/20 11:58:30;;;;;;;0.30;0.30;;;9.20;99.90;;;;;;4996901;28;20042;-73
2022/03/20 12:01:05;;;;;;;0.10;0.10;;;9.30;99.90;;;;;;5010608;28;20046;-73
2022/03/20 12:03:55;;;;;;;0.20;0.20;;;9.30;99.90;;;;;;5007896;28;20535;-73
2022/03/20 12:06:42;;;;;;;0.20;0.20;;;9.30;99.90;;;;;;5004602;28;20041;-83
2022/03/20 12:09:10;;;;;;;0.20;0.20;;;9.20;99.90;;;;;;5006370;28;20493;-74
2022/03/20 12:12:00;;;;;;;0.10;0.10;;;9.20;99.90;;;;;;5016533;28;20129;-74
2022/03/20 12:14:33;;;;;;;0.10;0.10;;;9.20;99.90;;;;;;5007662;28;20398;-75
2022/03/20 12:17:00;;;;;;;1.10;0.35;;;9.10;99.90;;;;;;5010353;28;20065;-77
2022/03/20 12:19:52;;;;;;;0.20;0.20;;;9.10;99.90;;;;;;5012987;28;20034;-76
2022/03/20 12:22:21;;;;;;;0.47;0.47;;;9.20;99.90;;;;;;5015907;28;20030;-75
2022/03/20 12:24:54;;;;;;;0.38;0.38;;;9.10;99.90;;;;;;4999189;28;20180;-75
2022/03/20 12:27:22;;;;;;;0.35;0.35;;;9.10;99.90;;;;;;5006242;28;20685;-75
2022/03/20 12:30:03;;;;;;;0.10;0.10;;;9.10;99.90;;;;;;5008642;28;20750;-74
2022/03/20 12:32:47;;;;;;;0.40;0.40;;;9.00;99.90;;;;;;5007829;28;20096;-75
2022/03/20 12:35:20;;;;;;;0.13;0.13;;;9.10;99.90;;;;;;5007604;28;20073;-74
2022/03/20 12:37:48;;;;;;;0.10;0.10;;;9.00;99.90;;;;;;5003598;28;20045;-75
2022/03/20 12:40:19;;;;;;;0.20;0.20;;;9.00;99.90;;;;;;5007961;28;20041;-75
2022/03/20 12:43:03;;;;;;;0.10;0.10;;;9.10;99.90;;;;;;5011594;28;20030;-75
2022/03/20 12:45:31;;;;;;;0.10;0.10;;;9.10;99.90;;;;;;5001886;28;20508;-75
2022/03/20 12:48:00;;;;;;;0.10;0.10;;;9.10;99.90;;;;;;5009846;28;20045;-75
2022/03/20 12:50:32;;;;;;;0.30;0.30;;;9.10;99.90;;;;;;5004761;28;20125;-75
2022/03/20 12:53:14;;;;;;;0.30;0.30;;;9.20;99.90;;;;;;5000730;28;20092;-76
2022/03/20 12:55:42;;;;;;;0.22;0.22;;;9.20;99.90;;;;;;5008562;28;20042;-76
2022/03/20 12:58:14;;;;;;;0.50;0.50;;;9.10;99.90;;;;;;5012119;28;20052;-76
2022/03/20 13:00:40;;;;;;;0.63;0.63;;;9.10;99.90;;;;;;4987654;28;20516;-77
2022/03/20 13:03:15;;;;;;;0.80;0.47;;;9.10;99.90;;;;;;4995672;28;20076;-78
2022/03/20 13:05:57;;;;;;;1.05;0.50;;;9.20;99.90;;;;;;5014826;28;20042;-78
2022/03/20 13:08:40;;;;;;;0.25;0.25;;;9.20;99.90;;;;;;5010379;28;20520;-76
2022/03/20 13:14:08;;;;;;;0.30;0.30;;;9.10;99.90;;;;;;5005215;28;20080;-77
2022/03/20 13:16:35;;;;;;;0.10;0.10;;;9.10;99.90;;;;;;4985692;28;20053;-78
2022/03/20 13:19:01;;;;;;;0.20;0.20;;;9.10;99.90;;;;;;5010023;28;20048;-77
2022/03/20 13:21:29;;;;;;;0.15;0.15;;;9.10;99.90;;;;;;4999070;28;20141;-76
2022/03/20 13:23:56;;;;;;;0.75;0.75;;;9.00;99.90;;;;;;5004638;28;20045;-78
2022/03/20 13:26:22;;;;;;;0.22;0.22;;;8.90;99.90;;;;;;5006711;28;20104;-76
2022/03/20 13:28:48;;;;;;;0.10;0.10;;;9.00;99.90;;;;;;4998710;28;20520;-75
2022/03/20 13:31:19;;;;;;;0.77;0.77;;;9.00;99.90;;;;;;5003204;28;20416;-75
2022/03/20 13:33:56;;;;;;;0.15;0.15;;;9.00;99.90;;;;;;5002402;28;20037;-75
2022/03/20 13:36:35;;;;;;;0.20;0.20;;;8.90;99.90;;;;;;5012601;28;20056;-75
2022/03/20 13:39:09;;;;;;;0.85;0.65;;;8.90;99.90;;;;;;4997832;28;20108;-74
2022/03/20 13:41:40;;;;;;;0.30;0.30;;;8.90;99.90;;;;;;5000977;28;20046;-74